HunTS Point — WDH2432 — position and weather

sailwx.info

Track history (hours):
 
Tides and Currents Weather Stations Pressure Air Temp Water Temp Dewpoint Dewpoint Depression Visibility Wind Speed Wind Dir Waves Ship Positions

HunTS Point

Owner: NEW YORK, CITY OF, BROOKLYN, NY. More information available from US FCC via Universal Licensing System and Coast Guard Vessel Documentation Center.

Last reported at 2017-Dec-11 16:57 UTC. Time now 2017-Dec-13 01:51 UTC.
Position N 40°39' W 074°09'.

Length 88 m; draft 4.3 m.

Type: Tanker. MMSI: 367597530.

Date/timePositionNaut miles runAvg speedWind from/ knotsBaromVisibWave heightAir tempDewpointWater temp
2017-Dec-11 16:57N 40°39' W 074°09'4 8.6
2017-Dec-11 16:30N 40°39' W 074°04'4 8.8
2017-Dec-11 16:00N 40°42' W 073°60'3 5.4
2017-Dec-11 15:29N 40°44' W 073°57'0 0.7
2017-Dec-11 14:59N 40°44' W 073°57'0 0.0
2017-Dec-11 14:21N 40°44' W 073°57'0 0.0
2017-Dec-11 13:58N 40°44' W 073°57'0 0.0
2017-Dec-11 13:30N 40°44' W 073°57'0 0.0
2017-Dec-11 12:58N 40°44' W 073°57'0 0.0
2017-Dec-11 12:26N 40°44' W 073°57'0 0.0
2017-Dec-11 11:59N 40°44' W 073°57'0 0.0
2017-Dec-11 11:30N 40°44' W 073°57'0 0.0
2017-Dec-11 10:47N 40°44' W 073°57'0 0.0
2017-Dec-11 10:30N 40°44' W 073°57'0 0.0
2017-Dec-11 10:00N 40°44' W 073°57'0 0.0
2017-Dec-11 09:30N 40°44' W 073°57'0 0.0
2017-Dec-11 09:00N 40°44' W 073°57'0 0.0
2017-Dec-11 08:29N 40°44' W 073°57'0 0.0
2017-Dec-11 08:00N 40°44' W 073°57'0 0.0
2017-Dec-11 07:30N 40°44' W 073°57'0 0.0
2017-Dec-11 06:59N 40°44' W 073°57'0 0.0
2017-Dec-11 06:30N 40°44' W 073°57'0 0.0
2017-Dec-11 06:00N 40°44' W 073°57'0 0.0
2017-Dec-11 05:30N 40°44' W 073°57'0 0.0
2017-Dec-11 05:00N 40°44' W 073°57'0 0.0
2017-Dec-11 04:12N 40°44' W 073°57'0 0.0
2017-Dec-11 03:53N 40°44' W 073°57'0 0.0
2017-Dec-11 03:24N 40°44' W 073°57'0 0.0
2017-Dec-11 02:35N 40°44' W 073°57'0 0.0
2017-Dec-11 02:28N 40°44' W 073°57'0 0.0
2017-Dec-11 01:16N 40°44' W 073°57'0 0.0
2017-Dec-11 00:53N 40°44' W 073°57'0 0.0
2017-Dec-11 00:21N 40°44' W 073°57'1 1.6
2017-Dec-11 00:00N 40°44' W 073°58'3 6.9
2017-Dec-10 23:30N 40°42' W 074°00'4 8.9
2017-Dec-10 23:00N 40°39' W 074°05'3 5.3
2017-Dec-10 22:30N 40°40' W 074°08'3 5.1
2017-Dec-10 22:00N 40°43' W 074°07'0 0.0
2017-Dec-10 21:31N 40°43' W 074°07'0 0.0
2017-Dec-10 21:00N 40°43' W 074°07'0 0.0
2017-Dec-10 20:30N 40°43' W 074°07'0 0.0
2017-Dec-10 20:00N 40°43' W 074°07'4 8.0
2017-Dec-10 19:29N 40°39' W 074°09'2 2.6
2017-Dec-10 18:38N 40°39' W 074°06'1 9.1
2017-Dec-10 18:30N 40°39' W 074°05'4 9.1
2017-Dec-10 18:00N 40°43' W 074°02'510.2
2017-Dec-10 17:30N 40°48' W 073°59'2 4.3
2017-Dec-10 16:59N 40°49' W 073°58'0 0.0
2017-Dec-10 16:30N 40°49' W 073°58'0 0.0
2017-Dec-10 16:00N 40°49' W 073°58'0 0.0
2017-Dec-10 15:30N 40°49' W 073°58'0 0.0
2017-Dec-10 15:00N 40°49' W 073°58'3 5.7
2017-Dec-10 14:29N 40°47' W 073°60'4 8.5
2017-Dec-10 14:00N 40°43' W 074°01'3 5.7
2017-Dec-10 13:31N 40°44' W 073°58'1 0.6
2017-Dec-10 12:16N 40°44' W 073°57'0 0.0
2017-Dec-10 12:00N 40°44' W 073°57'0 0.0
2017-Dec-10 11:28N 40°44' W 073°57'0 0.0
2017-Dec-10 11:00N 40°44' W 073°57'0 0.0
2017-Dec-10 10:30N 40°44' W 073°57'0 0.0
2017-Dec-10 09:58N 40°44' W 073°57'0 0.0
2017-Dec-10 09:29N 40°44' W 073°57'0 0.0
2017-Dec-10 09:00N 40°44' W 073°57'0 0.0
2017-Dec-10 08:29N 40°44' W 073°57'0 0.0
2017-Dec-10 07:58N 40°44' W 073°57'0 0.0
2017-Dec-10 07:30N 40°44' W 073°57'0 0.0
2017-Dec-10 06:21N 40°44' W 073°57'0 0.0
2017-Dec-10 04:26N 40°44' W 073°57'0 0.0
2017-Dec-09 23:20N 40°44' W 073°57'0 0.0
2017-Dec-09 22:58N 40°44' W 073°57'0 0.0
2017-Dec-09 22:30N 40°44' W 073°57'0 0.0
2017-Dec-09 21:53N 40°44' W 073°57'0 0.0
2017-Dec-09 21:12N 40°44' W 073°57'0 0.0
2017-Dec-09 20:56N 40°44' W 073°57'1 1.5
2017-Dec-09 20:30N 40°44' W 073°58'3 6.9
2017-Dec-09 20:00N 40°42' W 074°00'5 9.2
2017-Dec-09 19:30N 40°39' W 074°05'2 3.5
2017-Dec-09 19:01N 40°38' W 074°08'0 0.0
2017-Dec-09 18:30N 40°38' W 074°08'0 0.0
2017-Dec-09 18:01N 40°38' W 074°08'0 0.0
2017-Dec-09 17:30N 40°38' W 074°08'0 0.0
2017-Dec-09 17:00N 40°38' W 074°08'0 0.0
2017-Dec-09 16:30N 40°38' W 074°08'2 4.8
2017-Dec-09 16:00N 40°39' W 074°04'4 7.9
2017-Dec-09 15:30N 40°42' W 074°00'3 6.5
2017-Dec-09 15:00N 40°44' W 073°58'1 1.5
2017-Dec-09 14:28N 40°44' W 073°57'0 0.0
2017-Dec-09 13:45N 40°44' W 073°57'0 0.0
2017-Dec-09 13:29N 40°44' W 073°57'0 0.0
2017-Dec-09 12:59N 40°44' W 073°57'0 0.0
2017-Dec-09 10:33N 40°44' W 073°57'0 0.0
2017-Dec-09 10:11N 40°44' W 073°57'0 0.0
2017-Dec-09 09:58N 40°44' W 073°57'0 0.0
2017-Dec-09 09:20N 40°44' W 073°57'0 0.0
2017-Dec-09 09:00N 40°44' W 073°57'0 0.0
2017-Dec-09 08:29N 40°44' W 073°57'0 0.0
2017-Dec-09 07:56N 40°44' W 073°57'0 0.0
2017-Dec-09 06:54N 40°44' W 073°57'0 0.0
2017-Dec-09 06:26N 40°44' W 073°57'0 0.0
2017-Dec-09 05:51N 40°44' W 073°57'0 0.0
2017-Dec-09 05:30N 40°44' W 073°57'0 0.0
2017-Dec-09 05:00N 40°44' W 073°57'0 0.0
2017-Dec-09 04:30N 40°44' W 073°57'0 0.0
2017-Dec-09 04:00N 40°44' W 073°57'0 0.0
2017-Dec-09 03:30N 40°44' W 073°57'0 0.0
2017-Dec-09 03:00N 40°44' W 073°57'0 0.0
2017-Dec-09 02:30N 40°44' W 073°57'0 0.0
2017-Dec-09 02:01N 40°44' W 073°57'0 0.0
2017-Dec-09 01:27N 40°44' W 073°57'0 0.0
2017-Dec-09 01:00N 40°44' W 073°57'0 0.0
2017-Dec-08 23:55N 40°44' W 073°57'0 0.0
2017-Dec-08 23:29N 40°44' W 073°57'0 0.0
2017-Dec-08 23:00N 40°44' W 073°57'0 0.0
2017-Dec-08 22:21N 40°44' W 073°57'0 0.0
2017-Dec-08 21:58N 40°44' W 073°57'1 2.4
2017-Dec-08 21:30N 40°43' W 073°58'3 6.5
2017-Dec-08 21:00N 40°41' W 074°01'4 8.1
2017-Dec-08 20:30N 40°39' W 074°05'3 5.0
2017-Dec-08 20:00N 40°40' W 074°08'3 6.0
2017-Dec-08 19:31N 40°43' W 074°07'0 0.0
2017-Dec-08 19:01N 40°43' W 074°07'0 0.0
2017-Dec-08 18:31N 40°43' W 074°07'0 0.0
2017-Dec-08 18:01N 40°43' W 074°07'0 0.0
2017-Dec-08 17:30N 40°43' W 074°07'4 6.8
2017-Dec-08 16:53N 40°39' W 074°09'3 8.3
2017-Dec-08 16:30N 40°39' W 074°05'4 7.4
2017-Dec-08 16:00N 40°41' W 074°01'3 5.7
2017-Dec-08 15:30N 40°43' W 073°58'1 2.7
2017-Dec-08 15:00N 40°44' W 073°57'0 0.0
2017-Dec-08 14:28N 40°44' W 073°57'0 0.0
2017-Dec-08 14:00N 40°44' W 073°57'0 0.0
2017-Dec-08 13:18N 40°44' W 073°57'0 0.0
2017-Dec-08 12:58N 40°44' W 073°57'0 0.0
2017-Dec-08 12:23N 40°44' W 073°57'0 0.0
2017-Dec-08 11:59N 40°44' W 073°57'0 0.0
2017-Dec-08 11:23N 40°44' W 073°57'0 0.0
2017-Dec-08 09:57N 40°44' W 073°57'0 0.0
2017-Dec-08 09:27N 40°44' W 073°57'0 0.0
2017-Dec-08 08:55N 40°44' W 073°57'0 0.0
2017-Dec-08 08:24N 40°44' W 073°57'0 0.0
2017-Dec-08 07:59N 40°44' W 073°57'0 0.0
2017-Dec-08 07:30N 40°44' W 073°57'0 0.0
2017-Dec-08 07:00N 40°44' W 073°57'0 0.0
2017-Dec-08 06:30N 40°44' W 073°57'0 0.0
2017-Dec-08 06:00N 40°44' W 073°57'0 0.0
2017-Dec-08 05:29N 40°44' W 073°57'0 0.0
2017-Dec-08 04:59N 40°44' W 073°57'0 0.0
2017-Dec-08 04:30N 40°44' W 073°57'0 0.0
2017-Dec-08 04:00N 40°44' W 073°57'0 0.0
2017-Dec-08 03:30N 40°44' W 073°57'0 0.0
2017-Dec-08 03:00N 40°44' W 073°57'0 0.0
2017-Dec-08 02:30N 40°44' W 073°57'0 0.0
2017-Dec-08 01:19N 40°44' W 073°57'1 3.5
2017-Dec-08 01:00N 40°45' W 073°58'4 7.1
2017-Dec-08 00:30N 40°47' W 073°55'0 0.1
2017-Dec-07 22:31N 40°47' W 073°55'0 4.0
2017-Dec-07 22:29N 40°47' W 073°55'3 6.2
2017-Dec-07 22:01N 40°45' W 073°58'1 0.9
2017-Dec-07 20:47N 40°44' W 073°57'0 0.0
2017-Dec-07 20:21N 40°44' W 073°57'0 0.0
2017-Dec-07 19:59N 40°44' W 073°57'0 0.0
2017-Dec-07 19:30N 40°44' W 073°57'0 0.0
2017-Dec-07 18:57N 40°44' W 073°57'  
Track history (hours):
 
Tides and Currents Weather Stations Pressure Air Temp Water Temp Dewpoint Dewpoint Depression Visibility Wind Speed Wind Dir Waves Ship Positions

HunTS Point

Owner: NEW YORK, CITY OF, BROOKLYN, NY. More information available from US FCC via Universal Licensing System and Coast Guard Vessel Documentation Center.

Last reported at 2017-Dec-11 16:57 UTC. Time now 2017-Dec-13 01:51 UTC.
Position N 40°39' W 074°09'.

Length 88 m; draft 4.3 m.

Type: Tanker. MMSI: 367597530.

Date/timePositionNaut miles runAvg speedWind from/ knotsBaromVisibWave heightAir tempDewpointWater temp
2017-Dec-11 16:57N 40°39' W 074°09'4 8.6
2017-Dec-11 16:30N 40°39' W 074°04'4 8.8
2017-Dec-11 16:00N 40°42' W 073°60'3 5.4
2017-Dec-11 15:29N 40°44' W 073°57'0 0.7
2017-Dec-11 14:59N 40°44' W 073°57'0 0.0
2017-Dec-11 14:21N 40°44' W 073°57'0 0.0
2017-Dec-11 13:58N 40°44' W 073°57'0 0.0
2017-Dec-11 13:30N 40°44' W 073°57'0 0.0
2017-Dec-11 12:58N 40°44' W 073°57'0 0.0
2017-Dec-11 12:26N 40°44' W 073°57'0 0.0
2017-Dec-11 11:59N 40°44' W 073°57'0 0.0
2017-Dec-11 11:30N 40°44' W 073°57'0 0.0
2017-Dec-11 10:47N 40°44' W 073°57'0 0.0
2017-Dec-11 10:30N 40°44' W 073°57'0 0.0
2017-Dec-11 10:00N 40°44' W 073°57'0 0.0
2017-Dec-11 09:30N 40°44' W 073°57'0 0.0
2017-Dec-11 09:00N 40°44' W 073°57'0 0.0
2017-Dec-11 08:29N 40°44' W 073°57'0 0.0
2017-Dec-11 08:00N 40°44' W 073°57'0 0.0
2017-Dec-11 07:30N 40°44' W 073°57'0 0.0
2017-Dec-11 06:59N 40°44' W 073°57'0 0.0
2017-Dec-11 06:30N 40°44' W 073°57'0 0.0
2017-Dec-11 06:00N 40°44' W 073°57'0 0.0
2017-Dec-11 05:30N 40°44' W 073°57'0 0.0
2017-Dec-11 05:00N 40°44' W 073°57'0 0.0
2017-Dec-11 04:12N 40°44' W 073°57'0 0.0
2017-Dec-11 03:53N 40°44' W 073°57'0 0.0
2017-Dec-11 03:24N 40°44' W 073°57'0 0.0
2017-Dec-11 02:35N 40°44' W 073°57'0 0.0
2017-Dec-11 02:28N 40°44' W 073°57'0 0.0
2017-Dec-11 01:16N 40°44' W 073°57'0 0.0
2017-Dec-11 00:53N 40°44' W 073°57'0 0.0
2017-Dec-11 00:21N 40°44' W 073°57'1 1.6
2017-Dec-11 00:00N 40°44' W 073°58'3 6.9
2017-Dec-10 23:30N 40°42' W 074°00'4 8.9
2017-Dec-10 23:00N 40°39' W 074°05'3 5.3
2017-Dec-10 22:30N 40°40' W 074°08'3 5.1
2017-Dec-10 22:00N 40°43' W 074°07'0 0.0
2017-Dec-10 21:31N 40°43' W 074°07'0 0.0
2017-Dec-10 21:00N 40°43' W 074°07'0 0.0
2017-Dec-10 20:30N 40°43' W 074°07'0 0.0
2017-Dec-10 20:00N 40°43' W 074°07'4 8.0
2017-Dec-10 19:29N 40°39' W 074°09'2 2.6
2017-Dec-10 18:38N 40°39' W 074°06'1 9.1
2017-Dec-10 18:30N 40°39' W 074°05'4 9.1
2017-Dec-10 18:00N 40°43' W 074°02'510.2
2017-Dec-10 17:30N 40°48' W 073°59'2 4.3
2017-Dec-10 16:59N 40°49' W 073°58'0 0.0
2017-Dec-10 16:30N 40°49' W 073°58'0 0.0
2017-Dec-10 16:00N 40°49' W 073°58'0 0.0
2017-Dec-10 15:30N 40°49' W 073°58'0 0.0
2017-Dec-10 15:00N 40°49' W 073°58'3 5.7
2017-Dec-10 14:29N 40°47' W 073°60'4 8.5
2017-Dec-10 14:00N 40°43' W 074°01'3 5.7
2017-Dec-10 13:31N 40°44' W 073°58'1 0.6
2017-Dec-10 12:16N 40°44' W 073°57'0 0.0
2017-Dec-10 12:00N 40°44' W 073°57'0 0.0
2017-Dec-10 11:28N 40°44' W 073°57'0 0.0
2017-Dec-10 11:00N 40°44' W 073°57'0 0.0
2017-Dec-10 10:30N 40°44' W 073°57'0 0.0
2017-Dec-10 09:58N 40°44' W 073°57'0 0.0
2017-Dec-10 09:29N 40°44' W 073°57'0 0.0
2017-Dec-10 09:00N 40°44' W 073°57'0 0.0
2017-Dec-10 08:29N 40°44' W 073°57'0 0.0
2017-Dec-10 07:58N 40°44' W 073°57'0 0.0
2017-Dec-10 07:30N 40°44' W 073°57'0 0.0
2017-Dec-10 06:21N 40°44' W 073°57'0 0.0
2017-Dec-10 04:26N 40°44' W 073°57'0 0.0
2017-Dec-09 23:20N 40°44' W 073°57'0 0.0
2017-Dec-09 22:58N 40°44' W 073°57'0 0.0
2017-Dec-09 22:30N 40°44' W 073°57'0 0.0
2017-Dec-09 21:53N 40°44' W 073°57'0 0.0
2017-Dec-09 21:12N 40°44' W 073°57'0 0.0
2017-Dec-09 20:56N 40°44' W 073°57'1 1.5
2017-Dec-09 20:30N 40°44' W 073°58'3 6.9
2017-Dec-09 20:00N 40°42' W 074°00'5 9.2
2017-Dec-09 19:30N 40°39' W 074°05'2 3.5
2017-Dec-09 19:01N 40°38' W 074°08'0 0.0
2017-Dec-09 18:30N 40°38' W 074°08'0 0.0
2017-Dec-09 18:01N 40°38' W 074°08'0 0.0
2017-Dec-09 17:30N 40°38' W 074°08'0 0.0
2017-Dec-09 17:00N 40°38' W 074°08'0 0.0
2017-Dec-09 16:30N 40°38' W 074°08'2 4.8
2017-Dec-09 16:00N 40°39' W 074°04'4 7.9
2017-Dec-09 15:30N 40°42' W 074°00'3 6.5
2017-Dec-09 15:00N 40°44' W 073°58'1 1.5
2017-Dec-09 14:28N 40°44' W 073°57'0 0.0
2017-Dec-09 13:45N 40°44' W 073°57'0 0.0
2017-Dec-09 13:29N 40°44' W 073°57'0 0.0
2017-Dec-09 12:59N 40°44' W 073°57'0 0.0
2017-Dec-09 10:33N 40°44' W 073°57'0 0.0
2017-Dec-09 10:11N 40°44' W 073°57'0 0.0
2017-Dec-09 09:58N 40°44' W 073°57'0 0.0
2017-Dec-09 09:20N 40°44' W 073°57'0 0.0
2017-Dec-09 09:00N 40°44' W 073°57'0 0.0
2017-Dec-09 08:29N 40°44' W 073°57'0 0.0
2017-Dec-09 07:56N 40°44' W 073°57'0 0.0
2017-Dec-09 06:54N 40°44' W 073°57'0 0.0
2017-Dec-09 06:26N 40°44' W 073°57'0 0.0
2017-Dec-09 05:51N 40°44' W 073°57'0 0.0
2017-Dec-09 05:30N 40°44' W 073°57'0 0.0
2017-Dec-09 05:00N 40°44' W 073°57'0 0.0
2017-Dec-09 04:30N 40°44' W 073°57'0 0.0
2017-Dec-09 04:00N 40°44' W 073°57'0 0.0
2017-Dec-09 03:30N 40°44' W 073°57'0 0.0
2017-Dec-09 03:00N 40°44' W 073°57'0 0.0
2017-Dec-09 02:30N 40°44' W 073°57'0 0.0
2017-Dec-09 02:01N 40°44' W 073°57'0 0.0
2017-Dec-09 01:27N 40°44' W 073°57'0 0.0
2017-Dec-09 01:00N 40°44' W 073°57'0 0.0
2017-Dec-08 23:55N 40°44' W 073°57'0 0.0
2017-Dec-08 23:29N 40°44' W 073°57'0 0.0
2017-Dec-08 23:00N 40°44' W 073°57'0 0.0
2017-Dec-08 22:21N 40°44' W 073°57'0 0.0
2017-Dec-08 21:58N 40°44' W 073°57'1 2.4
2017-Dec-08 21:30N 40°43' W 073°58'3 6.5
2017-Dec-08 21:00N 40°41' W 074°01'4 8.1
2017-Dec-08 20:30N 40°39' W 074°05'3 5.0
2017-Dec-08 20:00N 40°40' W 074°08'3 6.0
2017-Dec-08 19:31N 40°43' W 074°07'0 0.0
2017-Dec-08 19:01N 40°43' W 074°07'0 0.0
2017-Dec-08 18:31N 40°43' W 074°07'0 0.0
2017-Dec-08 18:01N 40°43' W 074°07'0 0.0
2017-Dec-08 17:30N 40°43' W 074°07'4 6.8
2017-Dec-08 16:53N 40°39' W 074°09'3 8.3
2017-Dec-08 16:30N 40°39' W 074°05'4 7.4
2017-Dec-08 16:00N 40°41' W 074°01'3 5.7
2017-Dec-08 15:30N 40°43' W 073°58'1 2.7
2017-Dec-08 15:00N 40°44' W 073°57'0 0.0
2017-Dec-08 14:28N 40°44' W 073°57'0 0.0
2017-Dec-08 14:00N 40°44' W 073°57'0 0.0
2017-Dec-08 13:18N 40°44' W 073°57'0 0.0
2017-Dec-08 12:58N 40°44' W 073°57'0 0.0
2017-Dec-08 12:23N 40°44' W 073°57'0 0.0
2017-Dec-08 11:59N 40°44' W 073°57'0 0.0
2017-Dec-08 11:23N 40°44' W 073°57'0 0.0
2017-Dec-08 09:57N 40°44' W 073°57'0 0.0
2017-Dec-08 09:27N 40°44' W 073°57'0 0.0
2017-Dec-08 08:55N 40°44' W 073°57'0 0.0
2017-Dec-08 08:24N 40°44' W 073°57'0 0.0
2017-Dec-08 07:59N 40°44' W 073°57'0 0.0
2017-Dec-08 07:30N 40°44' W 073°57'0 0.0
2017-Dec-08 07:00N 40°44' W 073°57'0 0.0
2017-Dec-08 06:30N 40°44' W 073°57'0 0.0
2017-Dec-08 06:00N 40°44' W 073°57'0 0.0
2017-Dec-08 05:29N 40°44' W 073°57'0 0.0
2017-Dec-08 04:59N 40°44' W 073°57'0 0.0
2017-Dec-08 04:30N 40°44' W 073°57'0 0.0
2017-Dec-08 04:00N 40°44' W 073°57'0 0.0
2017-Dec-08 03:30N 40°44' W 073°57'0 0.0
2017-Dec-08 03:00N 40°44' W 073°57'0 0.0
2017-Dec-08 02:30N 40°44' W 073°57'0 0.0
2017-Dec-08 01:19N 40°44' W 073°57'1 3.5
2017-Dec-08 01:00N 40°45' W 073°58'4 7.1
2017-Dec-08 00:30N 40°47' W 073°55'0 0.1
2017-Dec-07 22:31N 40°47' W 073°55'0 4.0
2017-Dec-07 22:29N 40°47' W 073°55'3 6.2
2017-Dec-07 22:01N 40°45' W 073°58'1 0.9
2017-Dec-07 20:47N 40°44' W 073°57'0 0.0
2017-Dec-07 20:21N 40°44' W 073°57'0 0.0
2017-Dec-07 19:59N 40°44' W 073°57'0 0.0
2017-Dec-07 19:30N 40°44' W 073°57'0 0.0
2017-Dec-07 18:57N 40°44' W 073°57'  

Dump ship's entire track history